الصفحة الرئيسية
METAR-TAF:

METAR-TAF

مطار :

Clayton, نيومكسيكو, الولايات المتحدة

دائرة عرض: 36-26-54N, خط طول: 103-09-11W, ارتفاع: 1513 متر

مراقبة الطقس الحالي

تاريخ ووقت الإصدار 42 دقيقة قبل الساعة 03:55UTC
ريح 7 عقدة من الغرب
درجة الحرارة 21°درجة مئوية
الرطوبة 73%
ضغط 1021 hPa
الرؤية: 16.1 كم
غيوم قليلة على ارتفاع 9500 قدم

METAR: KCAO 180355Z AUTO 26007KT 10SM FEW095 21/16 A3016 RMK AO2 SLP129 T02110156 $

زمن: 22:37 (04:37 UTC)


TAF: مفقودة

أرصاد الطقس والتوقعات من أكثر من 4000 مطار (تقارير الطقس للمطار METAR والتنبؤ بالطقس بالمطارTAF).

المحطات المتاحة هي النقط الصفراء والحمراء على الخريطة.

حرك المؤشر فوق النقطة لمعرفة اسم المحطة.

ثم انقر لمعرفة أرصاد وتوقعات الطقس.

لتغيير الخارطة: اضغط على الأزرار الخضراء مع رمز الصليب الأسود للتكبير. على الزر الأخضر مع شرطة للتصغير، أو على الأسهم الخضراء للخرائط المجاورة.


METAR-TAF: